Time;durP1;ratioP1;P1;durP2;ratioP2;P2;SDS_P1;SDS_P2;PMS_P1;PMS_P2;Temp;Humidity;BMP_temperature;BMP_pressure;BME280_temperature;BME280_humidity;BME280_pressure;Samples;Min_cycle;Max_cycle;Signal;HPM_P1;HPM_P2
2022/10/06 00:01:41;;;;;;;4.22;2.20;;;12.20;67.60;;;;;;5106327;28;20070;-60
2022/10/06 00:04:07;;;;;;;4.70;2.00;;;12.10;67.50;;;;;;5093778;28;20032;-61
2022/10/06 00:06:32;;;;;;;4.65;2.30;;;12.10;67.60;;;;;;5100396;28;20024;-62
2022/10/06 00:08:58;;;;;;;7.10;1.90;;;12.10;67.60;;;;;;5107968;28;20028;-60
2022/10/06 00:11:25;;;;;;;15.20;2.50;;;12.10;67.70;;;;;;5093472;28;20032;-60
2022/10/06 00:13:51;;;;;;;6.18;2.40;;;12.10;68.00;;;;;;5107394;28;20028;-60
2022/10/06 00:16:21;;;;;;;2.47;2.20;;;12.00;68.00;;;;;;5088041;28;20039;-59
2022/10/06 00:18:46;;;;;;;6.22;2.08;;;12.10;68.10;;;;;;5088279;28;20025;-61
2022/10/06 00:21:12;;;;;;;8.90;2.10;;;12.00;67.90;;;;;;5105529;28;20063;-62
2022/10/06 00:23:39;;;;;;;6.57;2.00;;;12.00;68.00;;;;;;5108812;28;20020;-60
2022/10/06 00:26:15;;;;;;;4.57;1.80;;;12.00;68.00;;;;;;5086744;28;20040;-60
2022/10/06 00:28:47;;;;;;;2.90;1.85;;;12.00;68.20;;;;;;5088147;28;20020;-60
2022/10/06 00:31:16;;;;;;;5.18;2.17;;;11.90;67.90;;;;;;5070972;28;20020;-61
2022/10/06 00:33:41;;;;;;;4.45;2.15;;;11.90;67.90;;;;;;5070399;28;20422;-60
2022/10/06 00:36:08;;;;;;;2.22;2.03;;;11.90;67.90;;;;;;5106528;28;20044;-60
2022/10/06 00:38:34;;;;;;;13.00;2.00;;;11.90;67.90;;;;;;5108415;28;20028;-61
2022/10/06 00:41:00;;;;;;;3.65;1.58;;;11.80;67.80;;;;;;5086191;28;20031;-60
2022/10/06 00:43:41;;;;;;;1.88;1.42;;;11.80;67.80;;;;;;5107458;28;20024;-61
2022/10/06 00:46:12;;;;;;;2.25;1.58;;;11.80;68.10;;;;;;5088893;28;20034;-59
2022/10/06 00:48:38;;;;;;;2.88;1.45;;;11.80;67.80;;;;;;5114736;28;20019;-60
2022/10/06 00:51:04;;;;;;;2.75;1.58;;;11.70;67.70;;;;;;5105142;28;20048;-60
2022/10/06 00:53:31;;;;;;;3.50;1.75;;;11.70;67.70;;;;;;5119283;28;20039;-59
2022/10/06 00:55:57;;;;;;;1.75;1.65;;;11.60;67.80;;;;;;5098460;28;20037;-60
2022/10/06 00:58:23;;;;;;;4.70;1.77;;;11.60;67.90;;;;;;5107472;28;20032;-60
2022/10/06 01:00:54;;;;;;;15.32;1.85;;;11.60;68.00;;;;;;5088059;28;20033;-60
2022/10/06 01:03:36;;;;;;;23.70;2.50;;;11.50;68.10;;;;;;5086262;28;20032;-61
2022/10/06 01:06:03;;;;;;;2.75;1.95;;;11.50;68.70;;;;;;5067363;28;20025;-60
2022/10/06 01:08:31;;;;;;;3.08;1.55;;;11.50;68.20;;;;;;5105864;28;20054;-60
2022/10/06 01:10:56;;;;;;;3.42;1.83;;;11.40;68.20;;;;;;5106836;28;20024;-60
2022/10/06 01:13:23;;;;;;;1.92;1.70;;;11.40;68.20;;;;;;5086374;28;20077;-60
2022/10/06 01:16:03;;;;;;;2.30;1.60;;;11.40;68.20;;;;;;5105484;28;20534;-60
2022/10/06 01:18:32;;;;;;;2.20;1.83;;;11.40;68.40;;;;;;5067054;28;20036;-60
2022/10/06 01:21:10;;;;;;;1.80;1.50;;;11.40;68.10;;;;;;5104946;28;20043;-58
2022/10/06 01:23:37;;;;;;;9.43;1.90;;;11.30;68.30;;;;;;5066918;28;20025;-60
2022/10/06 01:26:09;;;;;;;3.45;1.92;;;11.30;68.10;;;;;;5104990;28;20080;-59
2022/10/06 01:28:36;;;;;;;3.15;2.00;;;11.30;68.40;;;;;;5087116;28;20044;-60
2022/10/06 01:31:03;;;;;;;2.92;1.60;;;11.30;68.30;;;;;;5106062;28;20027;-60
2022/10/06 01:33:29;;;;;;;3.85;1.50;;;11.30;68.30;;;;;;5104836;28;20024;-61
2022/10/06 01:35:55;;;;;;;2.50;1.80;;;11.30;68.30;;;;;;5087335;28;20036;-59
2022/10/06 01:38:21;;;;;;;3.20;1.63;;;11.20;68.20;;;;;;5086315;28;20039;-59
2022/10/06 01:40:49;;;;;;;4.38;1.80;;;11.20;68.10;;;;;;5106467;28;20150;-61
2022/10/06 01:43:14;;;;;;;2.08;1.70;;;11.20;68.10;;;;;;5086180;28;20025;-60
2022/10/06 01:45:40;;;;;;;2.08;1.70;;;11.20;68.10;;;;;;5089632;28;20020;-59
2022/10/06 01:48:06;;;;;;;2.28;1.80;;;11.10;68.20;;;;;;5088555;28;20021;-60
2022/10/06 01:50:32;;;;;;;2.60;1.90;;;11.20;68.40;;;;;;5102974;28;20056;-61
2022/10/06 01:52:58;;;;;;;5.53;1.73;;;11.10;68.30;;;;;;5084438;28;20446;-60
2022/10/06 01:55:24;;;;;;;5.43;1.63;;;11.10;68.40;;;;;;5093638;28;20045;-59
2022/10/06 01:57:50;;;;;;;3.95;2.00;;;11.10;68.50;;;;;;5090573;28;20036;-59
2022/10/06 02:00:16;;;;;;;2.60;1.48;;;11.10;68.70;;;;;;5105830;28;20509;-62
2022/10/06 02:02:42;;;;;;;2.15;1.60;;;11.00;68.60;;;;;;5085926;28;20029;-60
2022/10/06 02:05:10;;;;;;;3.65;1.60;;;11.10;68.60;;;;;;5105711;28;20024;-61
2022/10/06 02:07:37;;;;;;;3.30;1.55;;;11.00;68.60;;;;;;5084525;28;20032;-60
2022/10/06 02:10:04;;;;;;;8.00;1.77;;;11.00;68.50;;;;;;5105876;28;20036;-61
2022/10/06 02:12:30;;;;;;;3.05;1.63;;;11.00;68.60;;;;;;5096668;28;20089;-61
2022/10/06 02:14:57;;;;;;;3.75;1.45;;;11.00;68.50;;;;;;5086385;28;20043;-59
2022/10/06 02:17:23;;;;;;;1.50;1.40;;;11.00;68.60;;;;;;5094552;28;20048;-60
2022/10/06 02:19:49;;;;;;;2.35;1.80;;;10.90;68.60;;;;;;5086046;28;20036;-58
2022/10/06 02:22:15;;;;;;;3.28;1.58;;;10.90;68.60;;;;;;5093091;28;20025;-60
2022/10/06 02:24:41;;;;;;;2.70;1.80;;;10.90;68.60;;;;;;5105385;28;20104;-60
2022/10/06 02:27:07;;;;;;;3.92;1.70;;;10.90;68.60;;;;;;5084354;28;20032;-59
2022/10/06 02:29:33;;;;;;;3.83;1.60;;;10.90;68.50;;;;;;5094933;28;20032;-60
2022/10/06 02:31:59;;;;;;;2.15;1.60;;;10.90;68.40;;;;;;5089619;28;20032;-59
2022/10/06 02:34:25;;;;;;;2.08;1.60;;;10.90;68.40;;;;;;5105527;28;20367;-60
2022/10/06 02:36:51;;;;;;;2.38;1.95;;;10.90;68.60;;;;;;5085293;28;20035;-60
2022/10/06 02:39:16;;;;;;;7.53;1.55;;;10.80;68.50;;;;;;5105587;28;20055;-59
2022/10/06 02:41:42;;;;;;;5.40;1.38;;;10.80;68.40;;;;;;5084190;28;20025;-59
2022/10/06 02:44:08;;;;;;;3.05;1.55;;;10.80;68.40;;;;;;5105027;28;20052;-59
2022/10/06 02:46:33;;;;;;;1.52;1.40;;;10.80;68.40;;;;;;5087564;28;20056;-60
2022/10/06 02:48:59;;;;;;;1.65;1.30;;;10.70;68.40;;;;;;5099993;28;20024;-60
2022/10/06 02:51:24;;;;;;;3.88;1.80;;;10.70;68.50;;;;;;5094346;28;20093;-59
2022/10/06 02:53:50;;;;;;;3.00;1.42;;;10.70;68.50;;;;;;5106171;28;20047;-60
2022/10/06 02:56:19;;;;;;;1.88;1.30;;;10.70;68.60;;;;;;5086090;28;20029;-60
2022/10/06 02:58:46;;;;;;;6.10;1.50;;;10.70;68.70;;;;;;5065693;28;20051;-60
2022/10/06 03:01:34;;;;;;;1.67;1.52;;;10.70;68.70;;;;;;5101951;28;20032;-60
2022/10/06 03:03:59;;;;;;;4.78;1.40;;;10.70;69.60;;;;;;5065678;28;20042;-60
2022/10/06 03:06:28;;;;;;;3.92;1.50;;;10.70;68.70;;;;;;5103114;28;20111;-59
2022/10/06 03:09:02;;;;;;;4.50;1.92;;;10.60;68.70;;;;;;5105917;28;20030;-60
2022/10/06 03:11:40;;;;;;;2.17;1.45;;;10.60;68.80;;;;;;5071822;28;20464;-60
2022/10/06 03:14:06;;;;;;;1.52;1.42;;;10.60;68.90;;;;;;5105816;28;20022;-59
2022/10/06 03:16:39;;;;;;;2.17;1.52;;;10.60;68.50;;;;;;5085170;28;20351;-60
2022/10/06 03:19:06;;;;;;;1.85;1.50;;;10.50;68.70;;;;;;5105756;28;20030;-59
2022/10/06 03:21:41;;;;;;;2.33;1.70;;;10.50;68.60;;;;;;5085012;28;20036;-58
2022/10/06 03:24:07;;;;;;;2.92;1.63;;;10.50;68.90;;;;;;5085675;28;20055;-60
2022/10/06 03:26:35;;;;;;;3.70;1.27;;;10.50;68.70;;;;;;5103148;28;20121;-60
2022/10/06 03:29:01;;;;;;;3.65;1.40;;;10.50;68.80;;;;;;5103745;28;20544;-60
2022/10/06 03:31:27;;;;;;;1.65;1.55;;;10.50;68.80;;;;;;5085035;28;20051;-59
2022/10/06 03:33:55;;;;;;;1.75;1.42;;;10.50;68.90;;;;;;5105859;28;20024;-59
2022/10/06 03:36:23;;;;;;;1.58;1.48;;;10.40;68.90;;;;;;5085491;28;20096;-60
2022/10/06 03:38:49;;;;;;;3.55;1.67;;;10.40;69.00;;;;;;5083450;28;20056;-60
2022/10/06 03:41:20;;;;;;;2.00;1.73;;;10.40;68.90;;;;;;5085828;28;20054;-59
2022/10/06 03:43:48;;;;;;;2.45;2.03;;;10.40;69.10;;;;;;5093301;28;20080;-60
2022/10/06 03:46:19;;;;;;;9.32;1.80;;;10.40;69.10;;;;;;5117028;28;20047;-59
2022/10/06 03:48:45;;;;;;;7.70;1.88;;;10.40;69.30;;;;;;5098796;28;20056;-60
2022/10/06 03:51:14;;;;;;;2.92;1.77;;;10.40;69.20;;;;;;5108250;28;20037;-59
2022/10/06 03:53:42;;;;;;;2.45;1.70;;;10.40;69.20;;;;;;5106515;28;20462;-60
2022/10/06 03:56:15;;;;;;;2.42;1.60;;;10.40;69.20;;;;;;5085575;28;20029;-60
2022/10/06 03:58:43;;;;;;;4.05;1.85;;;10.40;69.30;;;;;;5086232;28;20028;-60
2022/10/06 04:01:13;;;;;;;2.75;1.65;;;10.40;69.20;;;;;;5104204;28;20032;-60
2022/10/06 04:03:40;;;;;;;4.43;1.77;;;10.40;69.30;;;;;;5085712;28;20067;-59
2022/10/06 04:06:10;;;;;;;5.72;2.03;;;10.30;69.80;;;;;;5108122;28;20024;-59
2022/10/06 04:08:37;;;;;;;4.32;1.95;;;10.30;69.20;;;;;;5085060;28;20028;-59
2022/10/06 04:11:08;;;;;;;6.13;1.88;;;10.30;69.20;;;;;;5108091;28;20109;-58
2022/10/06 04:13:34;;;;;;;2.17;1.73;;;10.30;69.40;;;;;;5087628;28;20029;-60
2022/10/06 04:16:15;;;;;;;4.13;1.80;;;10.30;69.20;;;;;;5108288;28;20036;-61
2022/10/06 04:18:42;;;;;;;2.03;1.80;;;10.30;69.60;;;;;;5083765;28;20034;-59
2022/10/06 04:21:08;;;;;;;2.30;1.83;;;10.30;69.20;;;;;;5089527;28;20087;-61
2022/10/06 04:23:35;;;;;;;3.67;1.92;;;10.30;69.30;;;;;;5089433;28;20101;-60
2022/10/06 04:26:05;;;;;;;5.20;2.28;;;10.30;69.40;;;;;;5108045;28;20370;-60
2022/10/06 04:28:31;;;;;;;3.65;2.28;;;10.20;69.40;;;;;;5086154;28;20029;-61
2022/10/06 04:31:00;;;;;;;5.63;2.22;;;10.20;69.50;;;;;;5106441;28;20028;-59
2022/10/06 04:33:26;;;;;;;5.63;2.50;;;10.20;69.70;;;;;;5087476;28;20070;-59
2022/10/06 04:35:59;;;;;;;3.17;2.28;;;10.20;69.70;;;;;;5107561;28;20032;-59
2022/10/06 04:38:26;;;;;;;2.97;2.30;;;10.20;69.80;;;;;;5081887;28;20035;-59
2022/10/06 04:40:52;;;;;;;3.63;2.05;;;10.20;69.50;;;;;;5107690;28;20020;-59
2022/10/06 04:43:18;;;;;;;3.22;2.60;;;10.20;69.60;;;;;;5086670;28;20380;-59
2022/10/06 04:45:44;;;;;;;3.55;2.72;;;10.20;69.60;;;;;;5107718;28;20032;-59
2022/10/06 04:48:10;;;;;;;7.07;2.85;;;10.20;69.70;;;;;;5087301;28;20032;-60
2022/10/06 04:50:35;;;;;;;4.90;2.40;;;10.20;69.90;;;;;;5103639;28;20063;-59
2022/10/06 04:53:01;;;;;;;4.18;2.25;;;10.20;69.80;;;;;;5087023;28;20027;-61
2022/10/06 04:55:26;;;;;;;3.83;2.72;;;10.20;69.80;;;;;;5107056;28;20161;-59
2022/10/06 04:57:54;;;;;;;7.47;3.78;;;10.20;69.70;;;;;;5085982;28;20102;-61
2022/10/06 05:00:24;;;;;;;5.88;3.40;;;10.10;69.80;;;;;;5107398;28;20024;-59
2022/10/06 05:02:51;;;;;;;6.70;3.38;;;10.10;69.80;;;;;;5095525;28;20024;-59
2022/10/06 05:05:17;;;;;;;6.07;3.90;;;10.20;69.80;;;;;;5088133;28;20033;-59
2022/10/06 05:07:44;;;;;;;11.55;3.78;;;10.20;69.80;;;;;;5097606;28;20058;-60
2022/10/06 05:10:10;;;;;;;8.48;4.05;;;10.10;69.90;;;;;;5106719;28;20028;-60
2022/10/06 05:12:36;;;;;;;6.43;4.00;;;10.10;69.90;;;;;;5092247;28;20027;-59
2022/10/06 05:15:02;;;;;;;7.05;4.35;;;10.10;70.00;;;;;;5107714;28;20445;-59
2022/10/06 05:17:28;;;;;;;7.63;4.20;;;10.10;70.10;;;;;;5092194;28;20040;-60
2022/10/06 05:19:54;;;;;;;18.30;5.30;;;10.10;70.20;;;;;;5101665;28;20058;-59
2022/10/06 05:22:19;;;;;;;7.15;3.72;;;10.10;70.50;;;;;;5104156;28;20020;-59
2022/10/06 05:24:45;;;;;;;10.27;3.55;;;10.10;70.90;;;;;;5107654;28;20038;-59
2022/10/06 05:27:11;;;;;;;6.32;4.40;;;10.10;70.90;;;;;;5086599;28;20020;-59
2022/10/06 05:29:37;;;;;;;7.55;4.57;;;10.10;70.90;;;;;;5106589;28;20024;-60
2022/10/06 05:32:03;;;;;;;9.85;4.35;;;10.20;71.10;;;;;;5085508;28;20433;-60
2022/10/06 05:34:29;;;;;;;6.75;4.18;;;10.20;71.20;;;;;;5106365;28;20032;-59
2022/10/06 05:36:55;;;;;;;8.75;4.55;;;10.20;71.40;;;;;;5086832;28;20072;-59
2022/10/06 05:39:20;;;;;;;9.20;4.05;;;10.20;71.40;;;;;;5107212;28;20024;-60
2022/10/06 05:41:46;;;;;;;7.18;4.15;;;10.20;71.40;;;;;;5087165;28;20095;-59
2022/10/06 05:44:12;;;;;;;8.30;4.28;;;10.20;71.40;;;;;;5105611;28;20038;-60
2022/10/06 05:46:38;;;;;;;6.55;4.18;;;10.30;71.40;;;;;;5087182;28;20028;-60
2022/10/06 05:49:06;;;;;;;7.75;4.60;;;10.30;71.50;;;;;;5090876;28;20031;-60
2022/10/06 05:51:33;;;;;;;7.57;4.75;;;10.30;71.60;;;;;;5094546;28;20450;-59
2022/10/06 05:54:00;;;;;;;12.90;4.72;;;10.40;71.80;;;;;;5087885;28;20455;-59
2022/10/06 05:56:27;;;;;;;8.60;4.93;;;10.40;71.90;;;;;;5106007;28;20036;-60
2022/10/06 05:58:54;;;;;;;7.60;4.90;;;10.40;72.00;;;;;;5086183;28;20043;-60
2022/10/06 06:01:31;;;;;;;6.32;4.57;;;10.50;72.90;;;;;;5106189;28;20437;-60
2022/10/06 06:04:02;;;;;;;11.38;7.57;;;10.60;72.60;;;;;;5082197;28;20131;-60
2022/10/06 06:06:42;;;;;;;15.80;8.85;;;10.60;72.60;;;;;;5106284;28;20063;-59
2022/10/06 06:09:09;;;;;;;9.60;7.05;;;10.70;72.70;;;;;;5083680;28;20024;-61
2022/10/06 06:11:38;;;;;;;12.18;7.68;;;10.70;72.60;;;;;;5098499;28;20033;-60
2022/10/06 06:14:06;;;;;;;13.13;7.35;;;10.80;72.80;;;;;;5088111;28;20032;-61
2022/10/06 06:16:35;;;;;;;14.95;6.97;;;10.90;72.90;;;;;;5106253;28;20078;-61
2022/10/06 06:19:01;;;;;;;7.70;5.22;;;10.90;72.80;;;;;;5085668;28;20024;-59
2022/10/06 06:21:28;;;;;;;10.13;4.57;;;11.00;72.80;;;;;;5091392;28;20048;-61
2022/10/06 06:23:54;;;;;;;7.30;4.45;;;11.10;72.80;;;;;;5092952;28;20013;-60
2022/10/06 06:26:25;;;;;;;6.82;3.88;;;11.20;72.90;;;;;;5116056;28;20093;-60
2022/10/06 06:28:52;;;;;;;7.53;4.07;;;11.20;73.10;;;;;;5095993;28;20015;-61
2022/10/06 06:31:26;;;;;;;10.52;5.22;;;11.30;72.80;;;;;;5112610;28;20031;-61
2022/10/06 06:33:53;;;;;;;;;;;11.40;73.00;;;;;;5085926;28;20103;-60
2022/10/06 06:36:53;;;;;;;8.90;4.00;;;11.40;73.20;;;;;;5105477;28;19951;-61
2022/10/06 06:39:18;;;;;;;10.75;3.05;;;11.50;72.30;;;;;;5083205;28;20040;-60
2022/10/06 06:41:45;;;;;;;8.90;3.53;;;11.50;72.00;;;;;;5097011;28;20016;-59
2022/10/06 06:44:11;;;;;;;4.75;3.50;;;11.50;72.20;;;;;;5087164;28;20032;-60
2022/10/06 06:46:38;;;;;;;6.93;3.30;;;11.60;72.30;;;;;;5089495;28;20024;-60
2022/10/06 06:49:05;;;;;;;5.43;3.47;;;11.60;72.60;;;;;;5025534;28;20046;-61
2022/10/06 06:51:36;;;;;;;9.13;3.35;;;11.70;72.90;;;;;;5094832;28;20051;-60
2022/10/06 06:54:03;;;;;;;5.75;3.10;;;11.80;73.40;;;;;;5081055;28;20048;-60
2022/10/06 06:56:33;;;;;;;4.95;2.15;;;11.90;73.50;;;;;;5101293;28;20086;-60
2022/10/06 06:59:00;;;;;;;6.85;2.40;;;12.00;73.60;;;;;;5080026;28;20032;-60
2022/10/06 07:01:25;;;;;;;8.65;2.40;;;12.20;73.50;;;;;;5105647;28;20034;-60
2022/10/06 07:03:55;;;;;;;8.82;2.50;;;12.30;73.40;;;;;;5085415;28;20060;-59
2022/10/06 07:06:22;;;;;;;11.30;2.50;;;12.40;73.50;;;;;;5104198;28;20035;-60
2022/10/06 07:08:48;;;;;;;9.77;4.10;;;12.50;73.30;;;;;;5104816;28;20104;-60
2022/10/06 07:11:21;;;;;;;8.43;4.10;;;12.70;73.30;;;;;;5084210;28;20123;-60
2022/10/06 07:13:52;;;;;;;9.38;3.20;;;12.80;73.30;;;;;;5078187;28;20035;-60
2022/10/06 07:27:23;;;;;;;10.25;2.72;;;13.30;72.40;;;;;;5067142;28;20044;-62
2022/10/06 07:29:53;;;;;;;6.53;2.78;;;13.40;73.00;;;;;;5105718;28;20483;-59
2022/10/06 07:32:23;;;;;;;7.05;3.67;;;13.40;72.20;;;;;;5084851;28;20021;-60
2022/10/06 07:34:50;;;;;;;6.10;4.25;;;13.50;72.80;;;;;;5105654;28;20012;-60
2022/10/06 07:37:17;;;;;;;13.68;5.72;;;13.60;72.70;;;;;;5087190;28;20077;-60
2022/10/06 07:39:43;;;;;;;12.60;6.53;;;13.60;72.70;;;;;;5108443;28;20024;-59
2022/10/06 07:42:14;;;;;;;14.45;5.30;;;13.70;72.80;;;;;;5089657;28;20027;-62
2022/10/06 07:45:36;;;;;;;10.45;3.30;;;13.80;72.90;;;;;;5087750;28;20193;-60
2022/10/06 07:47:30;;;;;;;5.57;3.45;;;13.90;73.10;;;;;;5069635;28;20452;-60
2022/10/06 07:49:57;;;;;;;8.00;3.05;;;14.00;72.90;;;;;;5107887;28;20333;-62
2022/10/06 07:52:24;;;;;;;6.60;3.38;;;14.10;73.00;;;;;;5105952;28;20051;-60
2022/10/06 07:54:49;;;;;;;8.52;3.75;;;14.20;73.10;;;;;;5108535;28;20071;-59
2022/10/06 07:57:15;;;;;;;9.43;3.65;;;14.30;73.00;;;;;;5089133;28;20048;-60
2022/10/06 07:59:41;;;;;;;8.07;3.55;;;14.40;73.00;;;;;;5107700;28;20020;-60
2022/10/06 08:02:06;;;;;;;9.57;3.83;;;14.50;73.00;;;;;;5089321;28;20055;-60
2022/10/06 08:04:32;;;;;;;5.65;3.63;;;14.60;73.00;;;;;;5088891;28;20035;-60
2022/10/06 08:06:58;;;;;;;5.95;3.47;;;14.70;72.70;;;;;;5089761;28;20075;-62
2022/10/06 08:09:24;;;;;;;7.55;3.50;;;14.80;72.60;;;;;;5090336;28;20080;-59
2022/10/06 08:11:50;;;;;;;8.25;3.67;;;14.90;72.50;;;;;;5088571;28;20062;-59
2022/10/06 08:14:15;;;;;;;11.23;3.35;;;14.90;72.40;;;;;;5090038;28;20034;-61
2022/10/06 08:16:41;;;;;;;11.25;4.25;;;15.10;72.70;;;;;;5108101;28;20044;-60
2022/10/06 08:19:07;;;;;;;9.80;3.72;;;15.20;72.80;;;;;;5087884;28;20063;-60
2022/10/06 08:21:33;;;;;;;6.47;3.63;;;15.30;72.70;;;;;;5106240;28;20032;-61
2022/10/06 08:24:00;;;;;;;10.55;3.97;;;15.40;72.60;;;;;;5094253;28;20043;-61
2022/10/06 08:26:27;;;;;;;6.95;3.53;;;15.50;72.50;;;;;;5108081;28;20398;-61
2022/10/06 08:29:01;;;;;;;9.23;3.63;;;15.60;72.40;;;;;;5087996;28;20394;-61
2022/10/06 08:31:26;;;;;;;9.20;4.20;;;15.60;72.30;;;;;;5068364;28;20039;-60
2022/10/06 08:33:54;;;;;;;10.93;3.55;;;15.70;72.20;;;;;;5106348;28;20047;-60
2022/10/06 08:36:26;;;;;;;11.70;4.00;;;15.80;72.20;;;;;;5088441;28;20028;-61
2022/10/06 08:38:53;;;;;;;10.05;3.97;;;15.90;72.40;;;;;;5078955;28;20498;-60
2022/10/06 08:41:43;;;;;;;10.00;2.90;;;16.00;72.20;;;;;;5107885;28;20024;-60
2022/10/06 08:44:20;;;;;;;5.65;3.22;;;16.10;72.50;;;;;;5082969;28;20036;-60
2022/10/06 08:47:12;;;;;;;5.95;3.03;;;16.20;72.20;;;;;;5070793;28;20085;-60
2022/10/06 08:49:43;;;;;;;10.13;2.90;;;16.30;72.80;;;;;;5094971;28;20028;-61
2022/10/06 08:52:25;;;;;;;5.20;3.00;;;16.40;72.50;;;;;;5066736;28;20076;-61
2022/10/06 08:55:29;;;;;;;7.72;2.75;;;16.50;72.80;;;;;;5107699;28;20028;-60
2022/10/06 08:58:39;;;;;;;11.32;2.28;;;16.60;73.00;;;;;;5070074;28;20044;-60
2022/10/06 09:01:18;;;;;;;8.55;2.20;;;16.80;72.30;;;;;;5040621;28;20117;-61
2022/10/06 09:03:47;;;;;;;5.00;1.70;;;16.90;71.70;;;;;;5084343;28;20058;-60
2022/10/06 09:06:45;;;;;;;5.88;1.80;;;17.10;71.60;;;;;;5085287;28;20032;-60
2022/10/06 09:09:33;;;;;;;2.90;1.85;;;17.30;72.10;;;;;;5074831;28;20175;-61
2022/10/06 09:12:13;;;;;;;2.88;1.65;;;17.40;71.20;;;;;;5095524;28;20039;-61
2022/10/06 09:14:44;;;;;;;4.82;1.75;;;17.60;70.80;;;;;;5081562;28;20140;-61
2022/10/06 09:17:16;;;;;;;4.18;1.90;;;17.80;70.10;;;;;;5065194;28;20124;-60
2022/10/06 09:19:52;;;;;;;4.07;1.80;;;17.90;70.20;;;;;;5099199;28;20071;-61
2022/10/06 09:22:21;;;;;;;6.80;2.40;;;18.10;69.00;;;;;;5065242;28;20601;-60
2022/10/06 09:24:50;;;;;;;7.35;2.10;;;18.30;69.00;;;;;;5084448;28;20032;-61
2022/10/06 09:27:44;;;;;;;6.72;1.80;;;18.40;68.70;;;;;;5085388;28;20523;-60
2022/10/06 09:30:13;;;;;;;4.97;1.23;;;18.60;67.90;;;;;;5065326;28;20051;-60
2022/10/06 09:32:45;;;;;;;4.43;1.58;;;18.80;67.40;;;;;;5107674;28;20041;-61
2022/10/06 09:35:20;;;;;;;6.30;1.30;;;18.90;66.20;;;;;;5073894;28;20800;-60
2022/10/06 09:37:53;;;;;;;5.65;2.45;;;19.10;65.40;;;;;;5112201;28;20043;-61
2022/10/06 09:40:37;;;;;;;6.18;1.75;;;19.30;65.10;;;;;;5113945;28;20028;-61
2022/10/06 09:43:15;;;;;;;4.38;1.30;;;19.40;63.70;;;;;;5095758;28;20036;-61
2022/10/06 09:45:41;;;;;;;3.85;1.50;;;19.50;64.20;;;;;;5114271;28;20051;-59
2022/10/06 09:48:20;;;;;;;3.17;1.35;;;19.60;64.30;;;;;;5097012;28;20031;-60
2022/10/06 09:51:05;;;;;;;3.22;1.58;;;19.70;63.50;;;;;;5109318;28;20048;-60
2022/10/06 09:53:30;;;;;;;4.47;1.67;;;19.80;63.10;;;;;;5091523;28;20028;-59
2022/10/06 09:55:56;;;;;;;6.35;1.33;;;19.90;64.10;;;;;;5109603;28;20133;-61
2022/10/06 09:58:32;;;;;;;3.20;1.23;;;20.00;62.60;;;;;;5094169;28;20039;-61
2022/10/06 10:01:01;;;;;;;4.22;1.23;;;20.10;62.70;;;;;;5108550;28;20056;-60
2022/10/06 10:03:40;;;;;;;6.68;1.70;;;20.30;62.60;;;;;;5101984;28;20077;-61
2022/10/06 10:06:05;;;;;;;5.10;1.10;;;20.50;61.40;;;;;;5068303;28;20025;-61
2022/10/06 10:08:31;;;;;;;2.60;1.20;;;20.60;61.80;;;;;;5095623;28;20072;-60
2022/10/06 10:12:23;;;;;;;2.83;0.93;;;20.80;60.30;;;;;;5102177;28;20029;-60
2022/10/06 10:13:58;;;;;;;4.25;1.30;;;20.90;59.60;;;;;;5084870;28;20055;-61
2022/10/06 10:16:25;;;;;;;3.72;1.27;;;21.00;60.00;;;;;;5095112;28;20037;-61
2022/10/06 10:18:52;;;;;;;1.73;0.90;;;21.00;59.10;;;;;;5105944;28;20092;-60
2022/10/06 10:21:29;;;;;;;3.67;1.40;;;21.10;59.00;;;;;;5088094;28;20043;-61
2022/10/06 10:24:00;;;;;;;3.00;1.00;;;21.10;58.50;;;;;;5106489;28;20053;-61
2022/10/06 10:26:52;;;;;;;4.32;1.08;;;21.20;57.90;;;;;;5067575;28;20100;-60
2022/10/06 10:30:00;;;;;;;3.28;1.10;;;21.30;57.60;;;;;;5098016;28;20036;-61
2022/10/06 10:32:59;;;;;;;2.53;1.00;;;21.40;57.40;;;;;;5066460;28;20093;-61
2022/10/06 10:35:36;;;;;;;4.65;1.48;;;21.50;54.90;;;;;;5066890;28;20036;-61
2022/10/06 10:38:10;;;;;;;3.38;1.30;;;21.50;55.40;;;;;;5066705;28;20037;-62
2022/10/06 10:41:03;;;;;;;3.78;1.15;;;21.40;55.10;;;;;;5066426;28;20490;-60
2022/10/06 10:43:37;;;;;;;7.97;0.98;;;21.30;55.20;;;;;;5065359;28;20402;-62
2022/10/06 10:46:21;;;;;;;4.47;1.30;;;21.20;55.60;;;;;;5069609;28;20040;-60
2022/10/06 10:49:15;;;;;;;3.92;1.15;;;21.00;55.60;;;;;;5083099;28;20100;-61
2022/10/06 10:51:55;;;;;;;3.80;1.20;;;20.90;55.90;;;;;;5096232;28;20048;-61
2022/10/06 10:54:45;;;;;;;3.95;1.30;;;20.90;56.20;;;;;;5065225;28;20025;-61
2022/10/06 10:57:20;;;;;;;2.83;1.00;;;20.80;56.10;;;;;;5085667;28;20460;-60
2022/10/06 11:00:16;;;;;;;3.33;1.50;;;20.80;56.40;;;;;;5068264;28;20029;-61
2022/10/06 11:02:43;;;;;;;4.65;1.52;;;20.80;56.60;;;;;;5065633;28;20059;-60
2022/10/06 11:05:15;;;;;;;2.70;1.33;;;20.90;57.00;;;;;;5085800;28;20479;-60
2022/10/06 11:07:54;;;;;;;6.13;1.20;;;20.90;56.90;;;;;;5105789;28;20028;-61
2022/10/06 11:10:37;;;;;;;4.97;1.30;;;21.00;57.50;;;;;;5084106;28;20120;-61
2022/10/06 11:13:11;;;;;;;4.97;1.75;;;21.20;56.90;;;;;;5069059;28;20086;-62
2022/10/06 11:15:56;;;;;;;6.32;1.42;;;21.30;55.90;;;;;;5089759;28;20374;-60
2022/10/06 11:18:41;;;;;;;6.32;1.67;;;21.40;55.70;;;;;;5108071;28;20066;-61
2022/10/06 11:21:13;;;;;;;6.88;1.63;;;21.50;56.00;;;;;;5109895;28;20057;-61
2022/10/06 11:24:01;;;;;;;4.45;1.27;;;21.50;55.60;;;;;;5073822;28;20088;-62
2022/10/06 11:27:24;;;;;;;7.22;1.45;;;21.60;55.20;;;;;;5068158;28;20033;-61
2022/10/06 11:30:01;;;;;;;4.40;1.65;;;21.70;55.80;;;;;;5061086;28;20033;-61
2022/10/06 11:32:46;;;;;;;2.72;1.35;;;21.70;56.00;;;;;;5046995;28;20030;-61
2022/10/06 11:35:25;;;;;;;6.35;1.65;;;21.80;55.60;;;;;;5031761;28;20033;-61
2022/10/06 11:38:17;;;;;;;4.78;1.17;;;21.80;55.90;;;;;;5086739;28;20044;-62
2022/10/06 11:41:10;;;;;;;2.22;1.20;;;21.90;56.10;;;;;;5056062;28;20128;-61
2022/10/06 11:44:02;;;;;;;5.10;1.50;;;22.10;56.20;;;;;;5077518;28;20052;-61
2022/10/06 11:46:56;;;;;;;2.13;1.20;;;22.20;55.30;;;;;;5046893;28;20057;-61
2022/10/06 11:49:28;;;;;;;3.95;1.38;;;22.40;54.70;;;;;;5066217;28;20036;-62
2022/10/06 11:52:14;;;;;;;2.45;1.25;;;22.50;55.10;;;;;;5067096;28;20183;-62
2022/10/06 11:54:42;;;;;;;4.10;1.45;;;22.60;53.10;;;;;;5068186;28;20080;-61
2022/10/06 11:57:23;;;;;;;2.58;1.35;;;22.70;54.80;;;;;;5086015;28;20040;-61
2022/10/06 11:59:51;;;;;;;3.92;1.30;;;22.70;53.50;;;;;;5066456;28;20044;-61
2022/10/06 12:02:32;;;;;;;4.75;1.42;;;22.80;54.20;;;;;;5108403;28;20111;-61
2022/10/06 12:05:17;;;;;;;2.92;1.48;;;22.80;52.20;;;;;;5088481;28;20043;-61
2022/10/06 12:07:58;;;;;;;8.75;1.15;;;22.90;52.80;;;;;;5068661;28;20025;-61
2022/10/06 12:10:26;;;;;;;4.53;1.38;;;23.00;53.70;;;;;;5086016;28;20115;-61
2022/10/06 12:12:56;;;;;;;5.28;1.38;;;23.10;52.70;;;;;;5108211;28;20035;-61
2022/10/06 12:15:53;;;;;;;3.05;1.50;;;23.10;53.10;;;;;;5086512;28;20063;-61
2022/10/06 12:18:29;;;;;;;4.93;1.08;;;23.20;53.20;;;;;;5073755;28;20039;-60
2022/10/06 12:21:05;;;;;;;3.22;1.20;;;23.30;53.30;;;;;;5072915;28;20035;-60
2022/10/06 12:23:52;;;;;;;5.35;1.58;;;23.40;53.40;;;;;;5077102;28;20104;-61
2022/10/06 12:26:59;;;;;;;8.43;1.70;;;23.40;52.90;;;;;;5068349;28;20159;-60
2022/10/06 12:29:49;;;;;;;6.05;1.38;;;23.30;52.50;;;;;;5035667;28;20034;-60
2022/10/06 12:32:45;;;;;;;3.50;1.00;;;23.20;52.20;;;;;;5045962;28;20419;-61
2022/10/06 12:35:59;;;;;;;3.53;1.20;;;23.00;52.60;;;;;;5025347;28;20034;-60
2022/10/06 12:38:33;;;;;;;5.65;1.73;;;22.90;53.50;;;;;;4965285;29;20047;-61
2022/10/06 12:41:00;;;;;;;;;;;22.90;53.30;;;;;;4967593;29;20038;-61
2022/10/06 12:43:42;;;;;;;3.67;1.38;;;22.90;53.90;;;;;;4965727;29;20420;-60
2022/10/06 12:46:46;;;;;;;5.40;1.20;;;23.00;53.70;;;;;;4948500;29;20102;-61
2022/10/06 12:49:30;;;;;;;9.85;1.60;;;22.90;53.20;;;;;;4817781;29;20061;-61
2022/10/06 12:52:04;;;;;;;3.70;1.23;;;22.90;52.90;;;;;;4923110;29;20063;-61
2022/10/06 12:54:36;;;;;;;5.90;1.33;;;22.80;53.10;;;;;;4918357;29;20113;-60
2022/10/06 12:57:19;;;;;;;3.45;1.27;;;22.70;52.60;;;;;;4910503;29;20052;-60
2022/10/06 12:59:48;;;;;;;5.22;1.50;;;22.50;52.70;;;;;;4901499;29;20100;-61
2022/10/06 13:02:17;;;;;;;6.30;1.52;;;22.40;53.90;;;;;;4928268;29;20523;-60
2022/10/06 13:04:50;;;;;;;6.05;1.45;;;22.30;53.40;;;;;;4925649;29;20033;-60
2022/10/06 13:07:22;;;;;;;2.88;1.27;;;22.20;53.60;;;;;;4947757;29;20047;-61
2022/10/06 13:09:54;;;;;;;4.00;1.13;;;22.10;53.70;;;;;;4984268;28;20510;-60
2022/10/06 13:12:29;;;;;;;5.40;1.08;;;22.10;54.00;;;;;;5006097;28;20042;-61
2022/10/06 13:15:08;;;;;;;3.22;1.17;;;22.00;53.90;;;;;;4998014;28;20045;-59
2022/10/06 13:17:56;;;;;;;3.97;1.05;;;21.90;53.90;;;;;;5024694;28;20061;-61
2022/10/06 13:20:35;;;;;;;4.93;1.40;;;21.90;54.10;;;;;;5000927;28;20509;-60
2022/10/06 13:23:21;;;;;;;5.22;1.75;;;21.80;54.50;;;;;;5021834;28;20049;-60